sensor_id;sensor_type;location;lat;lon;timestamp;temperature;humidity
24217;DHT22;12356;49.386;8.688;2024-01-15T00:00:52;0.40;10.30
24217;DHT22;12356;49.386;8.688;2024-01-15T00:03:22;0.50;10.40
24217;DHT22;12356;49.386;8.688;2024-01-15T00:05:53;0.50;10.10
24217;DHT22;12356;49.386;8.688;2024-01-15T00:08:23;0.60;9.70
24217;DHT22;12356;49.386;8.688;2024-01-15T00:10:54;0.50;10.10
24217;DHT22;12356;49.386;8.688;2024-01-15T00:13:24;0.40;10.70
24217;DHT22;12356;49.386;8.688;2024-01-15T00:15:55;0.40;11.10
24217;DHT22;12356;49.386;8.688;2024-01-15T00:18:26;0.40;11.00
24217;DHT22;12356;49.386;8.688;2024-01-15T00:20:56;0.40;11.30
24217;DHT22;12356;49.386;8.688;2024-01-15T00:23:27;0.40;11.50
24217;DHT22;12356;49.386;8.688;2024-01-15T00:25:57;0.50;11.40
24217;DHT22;12356;49.386;8.688;2024-01-15T00:28:28;0.50;12.00
24217;DHT22;12356;49.386;8.688;2024-01-15T00:30:59;0.40;11.80
24217;DHT22;12356;49.386;8.688;2024-01-15T00:33:29;0.40;12.00
24217;DHT22;12356;49.386;8.688;2024-01-15T00:36:00;0.40;12.40
24217;DHT22;12356;49.386;8.688;2024-01-15T00:38:30;0.30;12.50
24217;DHT22;12356;49.386;8.688;2024-01-15T00:41:01;0.30;12.70
24217;DHT22;12356;49.386;8.688;2024-01-15T00:43:32;0.30;13.60
24217;DHT22;12356;49.386;8.688;2024-01-15T00:46:03;0.40;13.40
24217;DHT22;12356;49.386;8.688;2024-01-15T00:48:33;0.40;13.10
24217;DHT22;12356;49.386;8.688;2024-01-15T00:51:04;0.50;12.50
24217;DHT22;12356;49.386;8.688;2024-01-15T00:53:35;0.40;12.70
24217;DHT22;12356;49.386;8.688;2024-01-15T00:56:06;0.40;13.50
24217;DHT22;12356;49.386;8.688;2024-01-15T00:58:36;0.40;13.50
24217;DHT22;12356;49.386;8.688;2024-01-15T01:01:07;0.40;13.60
24217;DHT22;12356;49.386;8.688;2024-01-15T01:03:38;0.40;14.30
24217;DHT22;12356;49.386;8.688;2024-01-15T01:06:08;0.30;14.60
24217;DHT22;12356;49.386;8.688;2024-01-15T01:08:39;0.30;15.50
24217;DHT22;12356;49.386;8.688;2024-01-15T01:11:13;0.30;16.00
24217;DHT22;12356;49.386;8.688;2024-01-15T01:13:44;0.30;16.20
24217;DHT22;12356;49.386;8.688;2024-01-15T01:16:14;0.30;16.40
24217;DHT22;12356;49.386;8.688;2024-01-15T01:18:45;0.40;16.10
24217;DHT22;12356;49.386;8.688;2024-01-15T01:21:15;0.30;15.90
24217;DHT22;12356;49.386;8.688;2024-01-15T01:23:47;0.30;16.00
24217;DHT22;12356;49.386;8.688;2024-01-15T01:26:17;0.40;16.80
24217;DHT22;12356;49.386;8.688;2024-01-15T01:28:48;0.40;16.00
24217;DHT22;12356;49.386;8.688;2024-01-15T01:31:19;0.40;15.90
24217;DHT22;12356;49.386;8.688;2024-01-15T01:33:49;0.40;16.00
24217;DHT22;12356;49.386;8.688;2024-01-15T01:36:20;0.40;15.90
24217;DHT22;12356;49.386;8.688;2024-01-15T01:38:50;0.40;15.80
24217;DHT22;12356;49.386;8.688;2024-01-15T01:41:21;0.40;16.00
24217;DHT22;12356;49.386;8.688;2024-01-15T01:43:51;0.40;16.30
24217;DHT22;12356;49.386;8.688;2024-01-15T01:46:23;0.40;16.00
24217;DHT22;12356;49.386;8.688;2024-01-15T01:48:55;0.40;15.80
24217;DHT22;12356;49.386;8.688;2024-01-15T01:51:26;0.40;15.50
24217;DHT22;12356;49.386;8.688;2024-01-15T01:53:56;0.50;15.40
24217;DHT22;12356;49.386;8.688;2024-01-15T01:56:27;0.50;15.60
24217;DHT22;12356;49.386;8.688;2024-01-15T01:58:58;0.50;15.40
24217;DHT22;12356;49.386;8.688;2024-01-15T02:01:30;0.50;15.50
24217;DHT22;12356;49.386;8.688;2024-01-15T02:04:00;0.60;15.60
24217;DHT22;12356;49.386;8.688;2024-01-15T02:06:31;0.50;15.60
24217;DHT22;12356;49.386;8.688;2024-01-15T02:09:01;0.50;15.20
24217;DHT22;12356;49.386;8.688;2024-01-15T02:11:33;0.60;15.50
24217;DHT22;12356;49.386;8.688;2024-01-15T02:14:04;0.60;15.20
24217;DHT22;12356;49.386;8.688;2024-01-15T02:16:34;0.60;15.20
24217;DHT22;12356;49.386;8.688;2024-01-15T02:19:05;0.50;15.70
24217;DHT22;12356;49.386;8.688;2024-01-15T02:21:35;0.50;15.40
24217;DHT22;12356;49.386;8.688;2024-01-15T02:24:06;0.50;15.70
24217;DHT22;12356;49.386;8.688;2024-01-15T02:26:37;0.50;15.80
24217;DHT22;12356;49.386;8.688;2024-01-15T02:29:09;0.50;15.70
24217;DHT22;12356;49.386;8.688;2024-01-15T02:31:39;0.40;15.60
24217;DHT22;12356;49.386;8.688;2024-01-15T02:34:10;0.40;15.80
24217;DHT22;12356;49.386;8.688;2024-01-15T02:36:40;0.50;15.60
24217;DHT22;12356;49.386;8.688;2024-01-15T02:39:11;0.50;15.60
24217;DHT22;12356;49.386;8.688;2024-01-15T02:41:41;0.50;15.50
24217;DHT22;12356;49.386;8.688;2024-01-15T02:44:12;0.50;15.90
24217;DHT22;12356;49.386;8.688;2024-01-15T02:46:42;0.70;15.70
24217;DHT22;12356;49.386;8.688;2024-01-15T02:49:13;0.60;15.50
24217;DHT22;12356;49.386;8.688;2024-01-15T02:51:44;0.60;15.30
24217;DHT22;12356;49.386;8.688;2024-01-15T02:54:15;0.60;15.80
24217;DHT22;12356;49.386;8.688;2024-01-15T02:56:45;0.70;15.40
24217;DHT22;12356;49.386;8.688;2024-01-15T02:59:16;0.60;14.80
24217;DHT22;12356;49.386;8.688;2024-01-15T03:01:46;0.60;15.30
24217;DHT22;12356;49.386;8.688;2024-01-15T03:04:17;0.60;15.20
24217;DHT22;12356;49.386;8.688;2024-01-15T03:06:47;0.70;15.20
24217;DHT22;12356;49.386;8.688;2024-01-15T03:09:18;0.60;15.40
24217;DHT22;12356;49.386;8.688;2024-01-15T03:11:48;0.60;15.50
24217;DHT22;12356;49.386;8.688;2024-01-15T03:14:19;0.60;15.20
24217;DHT22;12356;49.386;8.688;2024-01-15T03:16:50;0.50;15.30
24217;DHT22;12356;49.386;8.688;2024-01-15T03:19:21;0.50;15.60
24217;DHT22;12356;49.386;8.688;2024-01-15T03:21:51;0.60;15.90
24217;DHT22;12356;49.386;8.688;2024-01-15T03:24:22;0.60;15.90
24217;DHT22;12356;49.386;8.688;2024-01-15T03:26:52;0.60;15.90
24217;DHT22;12356;49.386;8.688;2024-01-15T03:29:23;0.70;15.60
24217;DHT22;12356;49.386;8.688;2024-01-15T03:31:53;0.70;15.00
24217;DHT22;12356;49.386;8.688;2024-01-15T03:34:24;0.70;15.20
24217;DHT22;12356;49.386;8.688;2024-01-15T03:36:55;0.70;15.10
24217;DHT22;12356;49.386;8.688;2024-01-15T03:39:25;0.70;15.20
24217;DHT22;12356;49.386;8.688;2024-01-15T03:41:56;0.70;15.10
24217;DHT22;12356;49.386;8.688;2024-01-15T03:44:26;0.70;15.40
24217;DHT22;12356;49.386;8.688;2024-01-15T03:46:57;0.60;15.20
24217;DHT22;12356;49.386;8.688;2024-01-15T03:49:28;0.60;15.20
24217;DHT22;12356;49.386;8.688;2024-01-15T03:51:58;0.60;15.40
24217;DHT22;12356;49.386;8.688;2024-01-15T03:54:29;0.50;15.90
24217;DHT22;12356;49.386;8.688;2024-01-15T03:57:00;0.50;16.20
24217;DHT22;12356;49.386;8.688;2024-01-15T03:59:30;0.60;16.20
24217;DHT22;12356;49.386;8.688;2024-01-15T04:02:01;0.60;15.80
24217;DHT22;12356;49.386;8.688;2024-01-15T04:04:31;0.60;15.90
24217;DHT22;12356;49.386;8.688;2024-01-15T04:07:02;0.70;15.60
24217;DHT22;12356;49.386;8.688;2024-01-15T04:09:32;0.70;15.70
24217;DHT22;12356;49.386;8.688;2024-01-15T04:12:03;0.70;15.80
24217;DHT22;12356;49.386;8.688;2024-01-15T04:14:33;0.80;15.50
24217;DHT22;12356;49.386;8.688;2024-01-15T04:17:04;0.70;15.10
24217;DHT22;12356;49.386;8.688;2024-01-15T04:19:34;0.70;15.20
24217;DHT22;12356;49.386;8.688;2024-01-15T04:22:05;0.70;15.10
24217;DHT22;12356;49.386;8.688;2024-01-15T04:24:36;0.70;15.60
24217;DHT22;12356;49.386;8.688;2024-01-15T04:27:07;0.80;15.20
24217;DHT22;12356;49.386;8.688;2024-01-15T04:29:38;0.80;15.40
24217;DHT22;12356;49.386;8.688;2024-01-15T04:32:09;0.80;15.40
24217;DHT22;12356;49.386;8.688;2024-01-15T04:34:40;0.80;15.40
24217;DHT22;12356;49.386;8.688;2024-01-15T04:37:11;0.80;15.10
24217;DHT22;12356;49.386;8.688;2024-01-15T04:39:41;0.70;15.40
24217;DHT22;12356;49.386;8.688;2024-01-15T04:42:12;0.70;16.00
24217;DHT22;12356;49.386;8.688;2024-01-15T04:44:42;0.80;15.70
24217;DHT22;12356;49.386;8.688;2024-01-15T04:47:13;0.70;15.80
24217;DHT22;12356;49.386;8.688;2024-01-15T04:49:43;0.80;15.90
24217;DHT22;12356;49.386;8.688;2024-01-15T04:52:14;0.80;15.60
24217;DHT22;12356;49.386;8.688;2024-01-15T04:54:45;0.70;15.80
24217;DHT22;12356;49.386;8.688;2024-01-15T04:57:15;0.70;16.00
24217;DHT22;12356;49.386;8.688;2024-01-15T04:59:46;0.70;15.80
24217;DHT22;12356;49.386;8.688;2024-01-15T05:02:16;0.70;16.10
24217;DHT22;12356;49.386;8.688;2024-01-15T05:04:47;0.70;16.40
24217;DHT22;12356;49.386;8.688;2024-01-15T05:07:17;0.60;16.20
24217;DHT22;12356;49.386;8.688;2024-01-15T05:09:48;0.60;16.60
24217;DHT22;12356;49.386;8.688;2024-01-15T05:12:18;0.70;16.70
24217;DHT22;12356;49.386;8.688;2024-01-15T05:14:49;0.70;16.30
24217;DHT22;12356;49.386;8.688;2024-01-15T05:17:20;0.80;16.30
24217;DHT22;12356;49.386;8.688;2024-01-15T05:19:50;0.80;16.70
24217;DHT22;12356;49.386;8.688;2024-01-15T05:22:21;0.80;16.70
24217;DHT22;12356;49.386;8.688;2024-01-15T05:24:51;0.80;16.40
24217;DHT22;12356;49.386;8.688;2024-01-15T05:27:22;0.70;16.70
24217;DHT22;12356;49.386;8.688;2024-01-15T05:29:52;0.70;16.90
24217;DHT22;12356;49.386;8.688;2024-01-15T05:32:23;0.80;17.00
24217;DHT22;12356;49.386;8.688;2024-01-15T05:34:54;0.80;16.80
24217;DHT22;12356;49.386;8.688;2024-01-15T05:37:24;0.80;16.90
24217;DHT22;12356;49.386;8.688;2024-01-15T05:39:55;0.70;17.00
24217;DHT22;12356;49.386;8.688;2024-01-15T05:42:25;0.70;17.10
24217;DHT22;12356;49.386;8.688;2024-01-15T05:44:57;0.80;17.10
24217;DHT22;12356;49.386;8.688;2024-01-15T05:47:29;0.80;17.10
24217;DHT22;12356;49.386;8.688;2024-01-15T05:50:01;0.80;17.40
24217;DHT22;12356;49.386;8.688;2024-01-15T05:52:32;0.70;16.90
24217;DHT22;12356;49.386;8.688;2024-01-15T05:55:03;0.80;17.10
24217;DHT22;12356;49.386;8.688;2024-01-15T05:57:33;0.80;16.90
24217;DHT22;12356;49.386;8.688;2024-01-15T06:00:04;0.70;17.00
24217;DHT22;12356;49.386;8.688;2024-01-15T06:02:37;0.80;17.60
24217;DHT22;12356;49.386;8.688;2024-01-15T06:05:08;0.70;18.20
24217;DHT22;12356;49.386;8.688;2024-01-15T06:07:39;0.80;17.90
24217;DHT22;12356;49.386;8.688;2024-01-15T06:10:10;0.80;17.70
24217;DHT22;12356;49.386;8.688;2024-01-15T06:12:40;0.80;17.90
24217;DHT22;12356;49.386;8.688;2024-01-15T06:15:11;0.90;17.60
24217;DHT22;12356;49.386;8.688;2024-01-15T06:17:42;0.90;17.70
24217;DHT22;12356;49.386;8.688;2024-01-15T06:20:13;0.90;17.70
24217;DHT22;12356;49.386;8.688;2024-01-15T06:22:43;0.90;17.50
24217;DHT22;12356;49.386;8.688;2024-01-15T06:25:14;1.00;17.90
24217;DHT22;12356;49.386;8.688;2024-01-15T06:27:44;1.00;18.10
24217;DHT22;12356;49.386;8.688;2024-01-15T06:30:15;1.00;17.60
24217;DHT22;12356;49.386;8.688;2024-01-15T06:32:45;1.00;17.70
24217;DHT22;12356;49.386;8.688;2024-01-15T06:35:16;1.00;17.90
24217;DHT22;12356;49.386;8.688;2024-01-15T06:37:47;1.10;17.90
24217;DHT22;12356;49.386;8.688;2024-01-15T06:40:17;1.10;17.80
24217;DHT22;12356;49.386;8.688;2024-01-15T06:42:48;1.10;17.70
24217;DHT22;12356;49.386;8.688;2024-01-15T06:45:18;1.10;17.60
24217;DHT22;12356;49.386;8.688;2024-01-15T06:47:49;1.10;17.50
24217;DHT22;12356;49.386;8.688;2024-01-15T06:50:19;1.10;17.90
24217;DHT22;12356;49.386;8.688;2024-01-15T06:52:50;1.10;18.10
24217;DHT22;12356;49.386;8.688;2024-01-15T06:55:20;1.00;18.20
24217;DHT22;12356;49.386;8.688;2024-01-15T06:57:54;1.00;18.50
24217;DHT22;12356;49.386;8.688;2024-01-15T07:00:25;1.10;18.60
24217;DHT22;12356;49.386;8.688;2024-01-15T07:02:56;1.10;18.40
24217;DHT22;12356;49.386;8.688;2024-01-15T07:05:27;1.10;18.60
24217;DHT22;12356;49.386;8.688;2024-01-15T07:07:58;1.20;18.60
24217;DHT22;12356;49.386;8.688;2024-01-15T07:10:29;1.20;18.20
24217;DHT22;12356;49.386;8.688;2024-01-15T07:12:59;1.20;18.40
24217;DHT22;12356;49.386;8.688;2024-01-15T07:15:30;1.20;18.20
24217;DHT22;12356;49.386;8.688;2024-01-15T07:18:01;1.10;18.60
24217;DHT22;12356;49.386;8.688;2024-01-15T07:20:31;1.10;18.60
24217;DHT22;12356;49.386;8.688;2024-01-15T07:23:02;1.10;18.40
24217;DHT22;12356;49.386;8.688;2024-01-15T07:25:33;1.10;18.50
24217;DHT22;12356;49.386;8.688;2024-01-15T07:28:04;1.10;18.60
24217;DHT22;12356;49.386;8.688;2024-01-15T07:30:34;1.10;18.60
24217;DHT22;12356;49.386;8.688;2024-01-15T07:33:05;1.10;18.60
24217;DHT22;12356;49.386;8.688;2024-01-15T07:35:36;1.10;18.60
24217;DHT22;12356;49.386;8.688;2024-01-15T07:38:07;1.10;18.60
24217;DHT22;12356;49.386;8.688;2024-01-15T07:40:38;1.20;18.70
24217;DHT22;12356;49.386;8.688;2024-01-15T07:43:09;1.20;18.70
24217;DHT22;12356;49.386;8.688;2024-01-15T07:45:39;1.20;18.70
24217;DHT22;12356;49.386;8.688;2024-01-15T07:48:10;1.30;18.70
24217;DHT22;12356;49.386;8.688;2024-01-15T07:50:41;1.30;18.70
24217;DHT22;12356;49.386;8.688;2024-01-15T07:53:11;1.30;18.80
24217;DHT22;12356;49.386;8.688;2024-01-15T07:55:42;1.30;18.70
24217;DHT22;12356;49.386;8.688;2024-01-15T07:58:12;1.40;18.80
24217;DHT22;12356;49.386;8.688;2024-01-15T08:00:43;1.40;18.80
24217;DHT22;12356;49.386;8.688;2024-01-15T08:03:14;1.40;18.70
24217;DHT22;12356;49.386;8.688;2024-01-15T08:05:45;1.40;18.40
24217;DHT22;12356;49.386;8.688;2024-01-15T08:08:17;1.30;18.70
24217;DHT22;12356;49.386;8.688;2024-01-15T08:10:47;1.40;18.80
24217;DHT22;12356;49.386;8.688;2024-01-15T08:13:18;1.40;18.80
24217;DHT22;12356;49.386;8.688;2024-01-15T08:15:48;1.30;18.70
24217;DHT22;12356;49.386;8.688;2024-01-15T08:18:20;1.30;19.20
24217;DHT22;12356;49.386;8.688;2024-01-15T08:20:52;1.40;19.20
24217;DHT22;12356;49.386;8.688;2024-01-15T08:23:22;1.40;19.00
24217;DHT22;12356;49.386;8.688;2024-01-15T08:25:53;1.40;19.50
24217;DHT22;12356;49.386;8.688;2024-01-15T08:28:23;1.40;19.60
24217;DHT22;12356;49.386;8.688;2024-01-15T08:30:54;1.40;19.80
24217;DHT22;12356;49.386;8.688;2024-01-15T08:33:24;1.30;19.40
24217;DHT22;12356;49.386;8.688;2024-01-15T08:35:55;1.30;19.80
24217;DHT22;12356;49.386;8.688;2024-01-15T08:38:26;1.40;20.10
24217;DHT22;12356;49.386;8.688;2024-01-15T08:40:56;1.40;19.90
24217;DHT22;12356;49.386;8.688;2024-01-15T08:43:29;1.40;19.70
24217;DHT22;12356;49.386;8.688;2024-01-15T08:46:01;1.40;19.70
24217;DHT22;12356;49.386;8.688;2024-01-15T08:48:32;1.40;19.60
24217;DHT22;12356;49.386;8.688;2024-01-15T08:51:03;1.40;19.90
24217;DHT22;12356;49.386;8.688;2024-01-15T08:53:33;1.40;20.10
24217;DHT22;12356;49.386;8.688;2024-01-15T08:56:04;1.40;20.00
24217;DHT22;12356;49.386;8.688;2024-01-15T08:58:36;1.50;20.10
24217;DHT22;12356;49.386;8.688;2024-01-15T09:01:06;1.50;20.70
24217;DHT22;12356;49.386;8.688;2024-01-15T09:03:37;1.50;20.70
24217;DHT22;12356;49.386;8.688;2024-01-15T09:06:08;1.50;21.40
24217;DHT22;12356;49.386;8.688;2024-01-15T09:08:39;1.60;21.30
24217;DHT22;12356;49.386;8.688;2024-01-15T09:11:10;1.60;21.40
24217;DHT22;12356;49.386;8.688;2024-01-15T09:13:41;1.60;21.50
24217;DHT22;12356;49.386;8.688;2024-01-15T09:16:11;1.60;21.80
24217;DHT22;12356;49.386;8.688;2024-01-15T09:18:42;1.60;22.30
24217;DHT22;12356;49.386;8.688;2024-01-15T09:21:12;1.60;22.60
24217;DHT22;12356;49.386;8.688;2024-01-15T09:23:43;1.60;22.40
24217;DHT22;12356;49.386;8.688;2024-01-15T09:26:13;1.60;22.40
24217;DHT22;12356;49.386;8.688;2024-01-15T09:28:44;1.60;22.80
24217;DHT22;12356;49.386;8.688;2024-01-15T09:31:14;1.60;22.70
24217;DHT22;12356;49.386;8.688;2024-01-15T09:33:47;1.70;22.80
24217;DHT22;12356;49.386;8.688;2024-01-15T09:36:18;1.70;22.60
24217;DHT22;12356;49.386;8.688;2024-01-15T09:38:49;1.70;23.10
24217;DHT22;12356;49.386;8.688;2024-01-15T09:41:19;1.60;23.60
24217;DHT22;12356;49.386;8.688;2024-01-15T09:43:50;1.60;24.30
24217;DHT22;12356;49.386;8.688;2024-01-15T09:46:21;1.70;25.00
24217;DHT22;12356;49.386;8.688;2024-01-15T09:48:51;1.70;25.30
24217;DHT22;12356;49.386;8.688;2024-01-15T09:51:24;1.70;26.30
24217;DHT22;12356;49.386;8.688;2024-01-15T09:53:55;1.70;27.40
24217;DHT22;12356;49.386;8.688;2024-01-15T09:56:25;1.70;28.50
24217;DHT22;12356;49.386;8.688;2024-01-15T09:58:57;1.70;29.40
24217;DHT22;12356;49.386;8.688;2024-01-15T10:01:28;1.70;30.30
24217;DHT22;12356;49.386;8.688;2024-01-15T10:03:59;1.70;31.80
24217;DHT22;12356;49.386;8.688;2024-01-15T10:06:30;1.70;32.50
24217;DHT22;12356;49.386;8.688;2024-01-15T10:09:01;1.70;34.10
24217;DHT22;12356;49.386;8.688;2024-01-15T10:11:33;1.70;35.50
24217;DHT22;12356;49.386;8.688;2024-01-15T10:14:05;1.70;35.40
24217;DHT22;12356;49.386;8.688;2024-01-15T10:16:35;1.70;36.40
24217;DHT22;12356;49.386;8.688;2024-01-15T10:19:10;1.70;37.50
24217;DHT22;12356;49.386;8.688;2024-01-15T10:21:41;1.70;38.20
24217;DHT22;12356;49.386;8.688;2024-01-15T10:24:12;1.70;38.30
24217;DHT22;12356;49.386;8.688;2024-01-15T10:26:42;1.70;39.40
24217;DHT22;12356;49.386;8.688;2024-01-15T10:29:14;1.70;39.80
24217;DHT22;12356;49.386;8.688;2024-01-15T10:31:46;1.70;40.30
24217;DHT22;12356;49.386;8.688;2024-01-15T10:34:16;1.70;40.60
24217;DHT22;12356;49.386;8.688;2024-01-15T10:36:48;1.70;41.20
24217;DHT22;12356;49.386;8.688;2024-01-15T10:39:25;1.70;41.30
24217;DHT22;12356;49.386;8.688;2024-01-15T10:41:56;1.70;41.90
24217;DHT22;12356;49.386;8.688;2024-01-15T10:44:26;1.70;43.20
24217;DHT22;12356;49.386;8.688;2024-01-15T10:46:57;1.60;43.70
24217;DHT22;12356;49.386;8.688;2024-01-15T10:49:28;1.60;45.30
24217;DHT22;12356;49.386;8.688;2024-01-15T10:52:01;1.60;46.30
24217;DHT22;12356;49.386;8.688;2024-01-15T10:54:32;1.60;47.00
24217;DHT22;12356;49.386;8.688;2024-01-15T10:57:04;1.70;47.10
24217;DHT22;12356;49.386;8.688;2024-01-15T10:59:36;1.70;47.40
24217;DHT22;12356;49.386;8.688;2024-01-15T11:02:07;1.70;48.40
24217;DHT22;12356;49.386;8.688;2024-01-15T11:04:38;1.70;48.00
24217;DHT22;12356;49.386;8.688;2024-01-15T11:07:10;1.70;49.50
24217;DHT22;12356;49.386;8.688;2024-01-15T11:09:42;1.80;48.90
24217;DHT22;12356;49.386;8.688;2024-01-15T11:12:13;1.70;49.60
24217;DHT22;12356;49.386;8.688;2024-01-15T11:14:48;1.70;49.40
24217;DHT22;12356;49.386;8.688;2024-01-15T11:17:19;1.80;49.60
24217;DHT22;12356;49.386;8.688;2024-01-15T11:19:50;1.80;49.80
24217;DHT22;12356;49.386;8.688;2024-01-15T11:25:13;1.80;50.50
24217;DHT22;12356;49.386;8.688;2024-01-15T11:27:46;1.80;50.00
24217;DHT22;12356;49.386;8.688;2024-01-15T11:30:26;1.80;49.90
24217;DHT22;12356;49.386;8.688;2024-01-15T11:32:57;1.80;49.40
24217;DHT22;12356;49.386;8.688;2024-01-15T11:35:48;1.80;49.40
24217;DHT22;12356;49.386;8.688;2024-01-15T11:38:28;1.90;49.30
24217;DHT22;12356;49.386;8.688;2024-01-15T11:40:59;1.90;49.50
24217;DHT22;12356;49.386;8.688;2024-01-15T11:43:32;1.90;49.80
24217;DHT22;12356;49.386;8.688;2024-01-15T11:46:04;2.00;49.70
24217;DHT22;12356;49.386;8.688;2024-01-15T11:48:42;2.00;50.00
24217;DHT22;12356;49.386;8.688;2024-01-15T11:51:17;1.90;49.60
24217;DHT22;12356;49.386;8.688;2024-01-15T11:53:49;1.90;50.60
24217;DHT22;12356;49.386;8.688;2024-01-15T11:56:23;2.00;50.10
24217;DHT22;12356;49.386;8.688;2024-01-15T11:58:54;2.00;50.60
24217;DHT22;12356;49.386;8.688;2024-01-15T12:01:25;2.10;50.70
24217;DHT22;12356;49.386;8.688;2024-01-15T12:03:55;2.10;50.70
24217;DHT22;12356;49.386;8.688;2024-01-15T12:06:26;2.20;51.00
24217;DHT22;12356;49.386;8.688;2024-01-15T12:09:07;2.20;50.20
24217;DHT22;12356;49.386;8.688;2024-01-15T12:11:41;2.20;50.70
24217;DHT22;12356;49.386;8.688;2024-01-15T12:14:14;2.10;50.70
24217;DHT22;12356;49.386;8.688;2024-01-15T12:16:45;2.20;51.40
24217;DHT22;12356;49.386;8.688;2024-01-15T12:19:16;2.10;51.50
24217;DHT22;12356;49.386;8.688;2024-01-15T12:21:46;2.10;51.10
24217;DHT22;12356;49.386;8.688;2024-01-15T12:24:18;2.20;51.10
24217;DHT22;12356;49.386;8.688;2024-01-15T12:26:48;2.20;51.00
24217;DHT22;12356;49.386;8.688;2024-01-15T12:29:19;2.20;50.30
24217;DHT22;12356;49.386;8.688;2024-01-15T12:31:51;2.30;50.30
24217;DHT22;12356;49.386;8.688;2024-01-15T12:34:23;2.20;49.10
24217;DHT22;12356;49.386;8.688;2024-01-15T12:36:53;2.20;50.20
24217;DHT22;12356;49.386;8.688;2024-01-15T12:39:24;2.20;50.00
24217;DHT22;12356;49.386;8.688;2024-01-15T12:41:55;2.20;49.60
24217;DHT22;12356;49.386;8.688;2024-01-15T12:44:26;2.20;50.00
24217;DHT22;12356;49.386;8.688;2024-01-15T12:46:56;2.20;49.60
24217;DHT22;12356;49.386;8.688;2024-01-15T12:49:28;2.30;49.90
24217;DHT22;12356;49.386;8.688;2024-01-15T12:51:59;2.20;50.10
24217;DHT22;12356;49.386;8.688;2024-01-15T12:54:30;2.30;50.70
24217;DHT22;12356;49.386;8.688;2024-01-15T12:57:00;2.30;50.50
24217;DHT22;12356;49.386;8.688;2024-01-15T12:59:31;2.30;50.00
24217;DHT22;12356;49.386;8.688;2024-01-15T13:02:01;2.30;50.10
24217;DHT22;12356;49.386;8.688;2024-01-15T13:04:32;2.40;51.00
24217;DHT22;12356;49.386;8.688;2024-01-15T13:07:03;2.40;50.00
24217;DHT22;12356;49.386;8.688;2024-01-15T13:09:33;2.40;49.80
24217;DHT22;12356;49.386;8.688;2024-01-15T13:12:05;2.30;50.10
24217;DHT22;12356;49.386;8.688;2024-01-15T13:14:36;2.30;49.30
24217;DHT22;12356;49.386;8.688;2024-01-15T13:17:06;2.40;49.30
24217;DHT22;12356;49.386;8.688;2024-01-15T13:19:37;2.50;49.50
24217;DHT22;12356;49.386;8.688;2024-01-15T13:22:08;2.50;48.40
24217;DHT22;12356;49.386;8.688;2024-01-15T13:24:39;2.50;48.30
24217;DHT22;12356;49.386;8.688;2024-01-15T13:27:10;2.50;47.80
24217;DHT22;12356;49.386;8.688;2024-01-15T13:29:42;2.40;47.80
24217;DHT22;12356;49.386;8.688;2024-01-15T13:32:14;2.40;47.80
24217;DHT22;12356;49.386;8.688;2024-01-15T13:34:47;2.40;47.90
24217;DHT22;12356;49.386;8.688;2024-01-15T13:37:18;2.30;47.50
24217;DHT22;12356;49.386;8.688;2024-01-15T13:39:48;2.40;48.00
24217;DHT22;12356;49.386;8.688;2024-01-15T13:42:19;2.50;48.30
24217;DHT22;12356;49.386;8.688;2024-01-15T13:44:52;2.50;47.40
24217;DHT22;12356;49.386;8.688;2024-01-15T13:47:22;2.50;48.00
24217;DHT22;12356;49.386;8.688;2024-01-15T13:49:54;2.60;48.30
24217;DHT22;12356;49.386;8.688;2024-01-15T13:52:25;2.60;47.90
24217;DHT22;12356;49.386;8.688;2024-01-15T13:54:56;2.60;47.90
24217;DHT22;12356;49.386;8.688;2024-01-15T13:57:26;2.60;48.40
24217;DHT22;12356;49.386;8.688;2024-01-15T13:59:57;2.60;48.00
24217;DHT22;12356;49.386;8.688;2024-01-15T14:02:27;2.50;47.50
24217;DHT22;12356;49.386;8.688;2024-01-15T14:04:58;2.50;48.20
24217;DHT22;12356;49.386;8.688;2024-01-15T14:07:28;2.50;48.20
24217;DHT22;12356;49.386;8.688;2024-01-15T14:09:59;2.60;48.50
24217;DHT22;12356;49.386;8.688;2024-01-15T14:12:30;2.60;48.40
24217;DHT22;12356;49.386;8.688;2024-01-15T14:15:01;2.60;48.90
24217;DHT22;12356;49.386;8.688;2024-01-15T14:17:32;2.50;47.10
24217;DHT22;12356;49.386;8.688;2024-01-15T14:20:03;2.60;45.10
24217;DHT22;12356;49.386;8.688;2024-01-15T14:22:35;2.60;44.80
24217;DHT22;12356;49.386;8.688;2024-01-15T14:25:06;2.60;45.40
24217;DHT22;12356;49.386;8.688;2024-01-15T14:27:37;2.60;45.60
24217;DHT22;12356;49.386;8.688;2024-01-15T14:30:08;2.60;45.70
24217;DHT22;12356;49.386;8.688;2024-01-15T14:32:39;2.60;44.50
24217;DHT22;12356;49.386;8.688;2024-01-15T14:35:09;2.60;44.10
24217;DHT22;12356;49.386;8.688;2024-01-15T14:37:41;2.70;44.10
24217;DHT22;12356;49.386;8.688;2024-01-15T14:40:11;2.70;43.50
24217;DHT22;12356;49.386;8.688;2024-01-15T14:42:42;2.60;44.30
24217;DHT22;12356;49.386;8.688;2024-01-15T14:45:13;2.70;45.00
24217;DHT22;12356;49.386;8.688;2024-01-15T14:47:43;2.70;44.60
24217;DHT22;12356;49.386;8.688;2024-01-15T14:50:14;2.70;44.00
24217;DHT22;12356;49.386;8.688;2024-01-15T14:52:45;2.70;43.70
24217;DHT22;12356;49.386;8.688;2024-01-15T14:55:16;2.70;43.50
24217;DHT22;12356;49.386;8.688;2024-01-15T14:57:47;2.70;40.20
24217;DHT22;12356;49.386;8.688;2024-01-15T15:00:17;2.80;39.40
24217;DHT22;12356;49.386;8.688;2024-01-15T15:02:48;2.80;39.30
24217;DHT22;12356;49.386;8.688;2024-01-15T15:05:19;2.80;37.30
24217;DHT22;12356;49.386;8.688;2024-01-15T15:07:50;2.80;36.40
24217;DHT22;12356;49.386;8.688;2024-01-15T15:10:21;2.80;35.40
24217;DHT22;12356;49.386;8.688;2024-01-15T15:12:51;2.80;35.60
24217;DHT22;12356;49.386;8.688;2024-01-15T15:15:22;2.80;35.10
24217;DHT22;12356;49.386;8.688;2024-01-15T15:17:53;2.70;36.40
24217;DHT22;12356;49.386;8.688;2024-01-15T15:20:24;2.70;37.50
24217;DHT22;12356;49.386;8.688;2024-01-15T15:22:54;2.80;38.80
24217;DHT22;12356;49.386;8.688;2024-01-15T15:25:26;2.80;37.80
24217;DHT22;12356;49.386;8.688;2024-01-15T15:27:56;2.80;37.10
24217;DHT22;12356;49.386;8.688;2024-01-15T15:30:27;2.80;37.50
24217;DHT22;12356;49.386;8.688;2024-01-15T15:32:58;2.80;37.30
24217;DHT22;12356;49.386;8.688;2024-01-15T15:35:28;2.80;37.70
24217;DHT22;12356;49.386;8.688;2024-01-15T15:37:59;2.80;38.20
24217;DHT22;12356;49.386;8.688;2024-01-15T15:40:30;2.70;38.20
24217;DHT22;12356;49.386;8.688;2024-01-15T15:43:00;2.70;39.20
24217;DHT22;12356;49.386;8.688;2024-01-15T15:45:31;2.70;40.40
24217;DHT22;12356;49.386;8.688;2024-01-15T15:48:02;2.80;39.40
24217;DHT22;12356;49.386;8.688;2024-01-15T15:50:32;2.70;40.50
24217;DHT22;12356;49.386;8.688;2024-01-15T15:53:03;2.80;41.50
24217;DHT22;12356;49.386;8.688;2024-01-15T15:55:34;2.70;41.30
24217;DHT22;12356;49.386;8.688;2024-01-15T15:58:09;2.70;41.60
24217;DHT22;12356;49.386;8.688;2024-01-15T16:00:40;2.70;41.30
24217;DHT22;12356;49.386;8.688;2024-01-15T16:03:10;2.70;41.60
24217;DHT22;12356;49.386;8.688;2024-01-15T16:05:41;2.80;41.40
24217;DHT22;12356;49.386;8.688;2024-01-15T16:08:11;2.70;40.60
24217;DHT22;12356;49.386;8.688;2024-01-15T16:10:42;2.70;41.10